ADDS METAR Data INFO
IDs: Format: Raw Decoded Include TAF

Data at: 0511 UTC 21 Feb 2018

KSPW 201453Z AUTO 31012KT 9SM -SN FEW014 OVC033 M09/M13 A2996 RMK AO2 UPB29E31SNE26B31 SLP169 P0000 6//// T10941128
KSPW 201353Z AUTO 32011G19KT 9SM -SN M10/M13 A2994 RMK AO2 UPB01E12B43E46SNB46 SLP162 T11001128 PNO
KSPW 201253Z AUTO 31009KT 10SM OVC034 M09/M12 A2991 RMK AO2 UPB41E49 SLP151 T10941122 PNO
KSPW 201153Z AUTO 34010KT 10SM OVC034 M09/M12 A2988 RMK AO2 UPB1054E1056 SLP142 6//// 7//// I6000 T10891117 11072 21089 53007 PNO $
KSPW 201133Z AUTO 34012KT 10SM SCT019 OVC033 M09/M12 A2988 RMK AO2 UPB1054E1056 T10891117 PNO $
KSPW 201101Z AUTO 35011KT 10SM OVC016 M09/M12 A2986 RMK AO2 UPB1054E1056 T10891117 PNO $
KSPW 201053Z AUTO 35012KT 10SM OVC014 M09/M12 A2986 RMK AO2 UPB44E49SNE44 SLP133 T10891117 PNO $
KSPW 200953Z AUTO 34013KT 7SM -SN OVC013 M08/M10 A2986 RMK AO2 UPE16SNB20 SLP136 I1000 T10831100 PNO $
KSPW 200853Z AUTO 33010KT 10SM UP OVC010 M07/M09 A2986 RMK AO2 SLP134 6//// T10721094 51031 PNO $
KSPW 200753Z AUTO 32006KT 10SM UP OVC009 M07/M09 A2985 RMK AO2 UPB11SNE11 SLP130 T10721089 PNO $
KSPW 200732Z AUTO 01006KT 10SM UP BKN009 BKN018 OVC026 M07/M09 A2984 RMK AO2 UPB11SNE11 PRESRR T10721089 PNO $
KSPW 200723Z AUTO 02009KT 6SM UP BR SCT009 BKN018 OVC055 M07/M09 A2982 RMK AO2 UPB11SNE11 PRESRR T10721089 PNO $
KSPW 200712Z AUTO 02009KT 3SM UP BR FEW009 BKN012 OVC060 M07/M09 A2979 RMK AO2 UPB11SNE11 T10721089 PNO $
KSPW 200653Z AUTO 02014KT 2 1/2SM -SN BR BKN010 OVC014 M07/M09 A2977 RMK AO2 UPB47E49SNE47B49 PRESFR SLP101 T10721094 PNO $
KSPW 200641Z AUTO 02012KT 3SM -SN BR OVC008 M07/M09 A2979 RMK AO2 CIG 006V010 T10721089 PNO $
KSPW 200631Z AUTO 02012KT 1 1/2SM -SN BR OVC008 M07/M09 A2981 RMK AO2 CIG 005V010 T10721089 PNO $
KSPW 200624Z AUTO 02013KT 2SM -SN BR OVC006 M07/M09 A2981 RMK AO2 CIG 005V009 T10721089 PNO $
KSPW 200553Z AUTO 01012KT 5SM -SN BR OVC006 M07/M09 A2982 RMK AO2 UPB0457E30SNE0457B30 SLP118 6//// I6001 T10721089 11061 21072 410391072 58012 PNO $
KSPW 200453Z AUTO 02014KT 5SM -SN BR OVC006 M07/M09 A2985 RMK AO2 UPB00E23FZRAB23E30SNE00B30 SLP130 I1001 T10721089 PNO $
KSPW 200436Z AUTO 02010KT 5SM -SN BR OVC006 M07/M09 A2985 RMK AO2 UPB00E23FZRAB23E30SNE00B30 I1001 T10721089 PNO $
KSPW 200429Z AUTO 03013G17KT 5SM -FZRA BR OVC006 M07/M09 A2985 RMK AO2 UPB00E23FZRAB23SNE00 I1001 T10721089 PNO $
KSPW 200402Z AUTO 03013KT 4SM UP BR OVC007 M07/M09 A2984 RMK AO2 UPB00SNE00 T10721089 PNO $
KSPW 200353Z AUTO 03009KT 2SM -SN BR OVC007 M07/M09 A2987 RMK AO2 UPB0255E05B29E35FZRAB05E08SNE0255B08E29B35 SLP136 I1000 T10721089 PNO $
KSPW 200321Z AUTO 01014KT 1 3/4SM -SN BR OVC007 M07/M09 A2985 RMK AO2 UPB0255E05FZRAB05E08SNE0255B08 I1000 T10721089 PNO $
KSPW 200253Z AUTO 01013G19KT 2SM -SN BR OVC008 M07/M09 A2985 RMK AO2 UPE31SNB31 SLP132 6//// T10721089 53007 PNO $
KSPW 200153Z AUTO 02015G21KT 2 1/2SM UP BR OVC008 M07/M09 A2984 RMK AO2 SLP126 T10721089 PNO $
KSPW 200053Z AUTO 01014KT 2SM UP BR OVC009 M07/M08 A2985 RMK AO2 UPE04B13SNB04E13 PRESRR SLP127 T10671083 PNO $
KSPW 200010Z AUTO 01016G23KT 2SM -SN BR OVC008 M07/M08 A2982 RMK AO2 UPE04SNB04 CIG 007V012 T10671078 PNO $
KSPW 192353Z AUTO 02019G23KT 1 1/4SM UP BR OVC009 M06/M08 A2983 RMK AO2 UPB2257E02B18E29B47FZRAB29E47SNE2257B02E18 CIG 007V012 SLP122 6//// I1000 I6003 T10611078 11061 21067 53011 PNO $
KSPW 192335Z AUTO 02018KT 1 1/4SM -FZRA BR OVC009 M06/M08 A2983 RMK AO2 UPB2257E02B18E29FZRAB29SNE2257B02E18 CIG 007V012 I1000 T10611083 PNO $
KSPW 192253Z AUTO 01016KT 1SM -SN BR OVC007 M06/M08 A2982 RMK AO2 UPE11B28E33SNB11E28B33 CIG 006V011 SLP118 I1001 T10611078 PNO $
KSPW 192153Z AUTO 01018KT 1SM UP BR OVC007 M07/M08 A2980 RMK AO2 UPB02E17B47FZRAB17E37SNE02B37E47 CIG 006V010 SLP112 I1001 T10671078 PNO $
KSPW 192143Z AUTO 01016G21KT 1SM -SN BR OVC007 M07/M08 A2981 RMK AO2 UPB02E17FZRAB17E37SNE02B37 CIG 006V010 I1001 T10671078 PNO $
KSPW 192123Z AUTO 01014KT 1SM -FZRA BR OVC007 M07/M08 A2980 RMK AO2 UPB02E17FZRAB17SNE02 I1001 T10671078 PNO $
KSPW 192110Z AUTO 36016KT 1SM UP BR OVC007 M07/M08 A2980 RMK AO2 UPB02SNE02 CIG 005V009 I1000 T10671083 PNO $
KSPW 192053Z AUTO 01014KT 3/4SM -SN BR OVC007 M07/M08 A2980 RMK AO2 UPB17E20SNE17B20 CIG 005V009 SLP111 6//// I1000 I3001 T10671078 52005 PNO $
KSPW 192036Z AUTO 02018KT 3/4SM -SN BR OVC007 M07/M08 A2978 RMK AO2 UPB17E20SNE17B20 CIG 005V010 I1000 T10671083 PNO $
KSPW 192024Z AUTO 03016KT 1SM -SN BR OVC007 M07/M08 A2979 RMK AO2 UPB17E20SNE17B20 CIG 006V010 I1000 T10671083 PNO $
KSPW 192010Z AUTO 01018G24KT 3/4SM -SN BR OVC007 M07/M08 A2978 RMK AO2 CIG 006V010 I1000 T10671083 PNO $
KSPW 191953Z AUTO 01014G35KT 1SM -SN BR OVC007 M07/M08 A2979 RMK AO2 PK WND 02035/1946 UPE21FZRAB21E52SNB52 SLP108 I1001 T10671083 PNO $
KSPW 191948Z AUTO 01016G35KT 1SM FZRA BR OVC007 M07/M08 A2979 RMK AO2 PK WND 02035/1946 UPE21FZRAB21 I1001 PNO $
KSPW 191936Z AUTO 1SM -FZRA BR OVC009 M07/M08 A2979 RMK AO2 UPE21FZRAB21 I1001 T10671083 PNO $
KSPW 191926Z AUTO 1SM FZRA BR OVC009 M07/M08 A2979 RMK AO2 UPE21FZRAB21 I1001 T10671083 PNO $
KSPW 191902Z AUTO 1SM UP BR OVC009 M07/M09 A2978 RMK AO2 T10671089 PNO $
KSPW 191853Z AUTO 1SM UP BR OVC010 M07/M09 A2978 RMK AO2 SLP105 I1000 T10671089 PNO $
KSPW 191753Z AUTO 1SM UP BR OVC011 M07/M09 A2980 RMK AO2 SLP110 6//// I6009 T10671089 11056 21072 55000 PNO $